sensor_id;sensor_type;location;lat;lon;timestamp;pressure;altitude;pressure_sealevel;temperature;humidity
84775;BME280;75005;50.966;11.344;2024-02-21T00:01:35;99898.16;;;7.45;74.12
84775;BME280;75005;50.966;11.344;2024-02-21T00:04:00;99894.97;;;7.60;72.76
84775;BME280;75005;50.966;11.344;2024-02-21T00:06:25;99882.78;;;7.70;72.54
84775;BME280;75005;50.966;11.344;2024-02-21T00:08:51;99880.59;;;7.76;72.69
84775;BME280;75005;50.966;11.344;2024-02-21T00:11:16;99888.13;;;7.87;71.42
84775;BME280;75005;50.966;11.344;2024-02-21T00:13:42;99879.09;;;7.91;71.79
84775;BME280;75005;50.966;11.344;2024-02-21T00:16:07;99882.22;;;7.77;72.61
84775;BME280;75005;50.966;11.344;2024-02-21T00:18:33;99882.28;;;7.85;71.66
84775;BME280;75005;50.966;11.344;2024-02-21T00:20:58;99876.13;;;7.86;72.04
84775;BME280;75005;50.966;11.344;2024-02-21T00:23:24;99866.97;;;7.74;72.29
84775;BME280;75005;50.966;11.344;2024-02-21T00:25:49;99866.97;;;7.74;72.76
84775;BME280;75005;50.966;11.344;2024-02-21T00:28:15;99863.78;;;7.80;71.44
84775;BME280;75005;50.966;11.344;2024-02-21T00:30:40;99852.59;;;7.79;71.64
84775;BME280;75005;50.966;11.344;2024-02-21T00:33:06;99857.69;;;7.89;70.67
84775;BME280;75005;50.966;11.344;2024-02-21T00:35:31;99853.56;;;7.78;71.71
84775;BME280;75005;50.966;11.344;2024-02-21T00:37:56;99854.53;;;7.77;71.87
84775;BME280;75005;50.966;11.344;2024-02-21T00:40:22;99843.59;;;7.56;73.08
84775;BME280;75005;50.966;11.344;2024-02-21T00:42:48;99838.38;;;7.65;72.26
84775;BME280;75005;50.966;11.344;2024-02-21T00:45:14;99845.84;;;7.86;72.34
84775;BME280;75005;50.966;11.344;2024-02-21T00:47:39;99837.13;;;7.69;71.77
84775;BME280;75005;50.966;11.344;2024-02-21T00:50:06;99829.16;;;7.53;72.53
84775;BME280;75005;50.966;11.344;2024-02-21T00:52:32;99840.53;;;7.70;72.81
84775;BME280;75005;50.966;11.344;2024-02-21T00:54:58;99838.47;;;7.74;72.81
84775;BME280;75005;50.966;11.344;2024-02-21T00:57:24;99845.91;;;7.59;73.71
84775;BME280;75005;50.966;11.344;2024-02-21T00:59:49;99835.00;;;7.55;74.55
84775;BME280;75005;50.966;11.344;2024-02-21T01:02:15;99836.78;;;7.55;73.58
84775;BME280;75005;50.966;11.344;2024-02-21T01:04:40;99829.75;;;7.47;73.87
84775;BME280;75005;50.966;11.344;2024-02-21T01:07:06;99826.06;;;7.50;74.73
84775;BME280;75005;50.966;11.344;2024-02-21T01:09:31;99826.44;;;7.55;73.80
84775;BME280;75005;50.966;11.344;2024-02-21T01:11:56;99833.66;;;7.51;73.57
84775;BME280;75005;50.966;11.344;2024-02-21T01:14:22;99825.03;;;7.60;72.73
84775;BME280;75005;50.966;11.344;2024-02-21T01:16:47;99811.94;;;7.62;73.00
84775;BME280;75005;50.966;11.344;2024-02-21T01:19:13;99811.50;;;7.66;72.26
84775;BME280;75005;50.966;11.344;2024-02-21T01:21:38;99802.09;;;7.65;72.97
84775;BME280;75005;50.966;11.344;2024-02-21T01:24:04;99810.25;;;7.70;72.76
84775;BME280;75005;50.966;11.344;2024-02-21T01:26:29;99799.06;;;7.70;71.88
84775;BME280;75005;50.966;11.344;2024-02-21T01:28:54;99809.88;;;7.83;71.41
84775;BME280;75005;50.966;11.344;2024-02-21T01:31:20;99797.38;;;7.79;71.31
84775;BME280;75005;50.966;11.344;2024-02-21T01:33:45;99790.19;;;7.72;72.18
84775;BME280;75005;50.966;11.344;2024-02-21T01:36:11;99795.66;;;7.69;72.46
84775;BME280;75005;50.966;11.344;2024-02-21T01:38:36;99797.44;;;7.69;72.48
84775;BME280;75005;50.966;11.344;2024-02-21T01:41:03;99781.91;;;7.69;72.70
84775;BME280;75005;50.966;11.344;2024-02-21T01:43:28;99783.16;;;7.83;71.66
84775;BME280;75005;50.966;11.344;2024-02-21T01:45:55;99772.19;;;7.89;71.48
84775;BME280;75005;50.966;11.344;2024-02-21T01:48:24;99775.06;;;7.86;71.62
84775;BME280;75005;50.966;11.344;2024-02-21T01:50:51;99781.19;;;7.77;73.52
84775;BME280;75005;50.966;11.344;2024-02-21T01:53:20;99770.72;;;7.68;73.07
84775;BME280;75005;50.966;11.344;2024-02-21T01:55:46;99765.03;;;7.65;74.23
84775;BME280;75005;50.966;11.344;2024-02-21T01:58:16;99756.72;;;7.61;75.27
84775;BME280;75005;50.966;11.344;2024-02-21T02:00:42;99763.91;;;7.67;74.32
84775;BME280;75005;50.966;11.344;2024-02-21T02:03:12;99765.78;;;7.75;75.27
84775;BME280;75005;50.966;11.344;2024-02-21T02:05:47;99767.97;;;7.88;74.19
84775;BME280;75005;50.966;11.344;2024-02-21T02:08:18;99769.31;;;7.92;75.23
84775;BME280;75005;50.966;11.344;2024-02-21T02:10:44;99758.34;;;7.80;75.50
84775;BME280;75005;50.966;11.344;2024-02-21T02:13:10;99749.41;;;7.57;77.51
84775;BME280;75005;50.966;11.344;2024-02-21T02:15:43;99752.16;;;7.37;78.14
84775;BME280;75005;50.966;11.344;2024-02-21T02:18:09;99750.72;;;7.43;77.89
84775;BME280;75005;50.966;11.344;2024-02-21T02:20:35;99748.28;;;7.59;76.66
84775;BME280;75005;50.966;11.344;2024-02-21T02:23:07;99750.38;;;7.38;78.40
84775;BME280;75005;50.966;11.344;2024-02-21T02:25:34;99740.38;;;7.43;76.63
84775;BME280;75005;50.966;11.344;2024-02-21T02:27:59;99737.78;;;7.43;77.56
84775;BME280;75005;50.966;11.344;2024-02-21T02:30:25;99744.31;;;7.65;76.75
84775;BME280;75005;50.966;11.344;2024-02-21T02:32:50;99753.97;;;7.81;75.73
84775;BME280;75005;50.966;11.344;2024-02-21T02:35:16;99747.28;;;7.70;75.71
84775;BME280;75005;50.966;11.344;2024-02-21T02:37:48;99746.44;;;7.52;77.61
84775;BME280;75005;50.966;11.344;2024-02-21T02:40:13;99744.28;;;7.47;76.92
84775;BME280;75005;50.966;11.344;2024-02-21T02:42:39;99748.97;;;7.61;77.31
84775;BME280;75005;50.966;11.344;2024-02-21T02:45:04;99756.72;;;7.61;76.54
84775;BME280;75005;50.966;11.344;2024-02-21T02:47:30;99757.84;;;7.77;77.58
84775;BME280;75005;50.966;11.344;2024-02-21T02:49:55;99754.91;;;7.71;76.72
84775;BME280;75005;50.966;11.344;2024-02-21T02:52:21;99757.91;;;7.49;79.79
84775;BME280;75005;50.966;11.344;2024-02-21T02:54:47;99754.72;;;7.55;78.71
84775;BME280;75005;50.966;11.344;2024-02-21T02:57:16;99763.16;;;7.40;79.79
84775;BME280;75005;50.966;11.344;2024-02-21T02:59:42;99757.09;;;7.31;80.30
84775;BME280;75005;50.966;11.344;2024-02-21T03:02:07;99752.00;;;7.39;80.46
84775;BME280;75005;50.966;11.344;2024-02-21T03:04:33;99738.59;;;7.26;79.00
84775;BME280;75005;50.966;11.344;2024-02-21T03:06:58;99749.22;;;7.23;81.50
84775;BME280;75005;50.966;11.344;2024-02-21T03:09:24;99743.53;;;7.19;81.59
84775;BME280;75005;50.966;11.344;2024-02-21T03:11:49;99758.91;;;7.21;79.10
84775;BME280;75005;50.966;11.344;2024-02-21T03:14:14;99735.19;;;7.25;80.33
84775;BME280;75005;50.966;11.344;2024-02-21T03:16:40;99737.84;;;7.51;77.02
84775;BME280;75005;50.966;11.344;2024-02-21T03:19:05;99732.69;;;7.69;76.76
84775;BME280;75005;50.966;11.344;2024-02-21T03:21:31;99733.81;;;7.66;77.14
84775;BME280;75005;50.966;11.344;2024-02-21T03:23:56;99729.22;;;7.60;77.04
84775;BME280;75005;50.966;11.344;2024-02-21T03:26:21;99711.44;;;7.48;77.55
84775;BME280;75005;50.966;11.344;2024-02-21T03:28:47;99718.31;;;7.57;77.47
84775;BME280;75005;50.966;11.344;2024-02-21T03:31:12;99714.03;;;7.65;76.07
84775;BME280;75005;50.966;11.344;2024-02-21T03:33:40;99708.78;;;7.57;75.54
84775;BME280;75005;50.966;11.344;2024-02-21T03:36:06;99715.28;;;7.79;75.17
84775;BME280;75005;50.966;11.344;2024-02-21T03:38:32;99713.84;;;7.85;75.31
84775;BME280;75005;50.966;11.344;2024-02-21T03:40:57;99707.25;;;7.90;74.45
84775;BME280;75005;50.966;11.344;2024-02-21T03:43:22;99705.34;;;7.92;74.75
84775;BME280;75005;50.966;11.344;2024-02-21T03:45:48;99708.38;;;7.88;74.46
84775;BME280;75005;50.966;11.344;2024-02-21T03:48:14;99694.25;;;7.82;75.35
84775;BME280;75005;50.966;11.344;2024-02-21T03:50:39;99699.41;;;7.82;75.30
84775;BME280;75005;50.966;11.344;2024-02-21T03:53:04;99697.59;;;7.75;75.29
84775;BME280;75005;50.966;11.344;2024-02-21T03:55:30;99689.16;;;7.72;74.59
84775;BME280;75005;50.966;11.344;2024-02-21T03:57:55;99682.06;;;7.75;75.25
84775;BME280;75005;50.966;11.344;2024-02-21T04:00:21;99685.63;;;7.74;73.51
84775;BME280;75005;50.966;11.344;2024-02-21T04:02:46;99675.44;;;7.80;74.61
84775;BME280;75005;50.966;11.344;2024-02-21T04:05:15;99672.41;;;7.85;74.88
84775;BME280;75005;50.966;11.344;2024-02-21T04:07:41;99665.13;;;7.62;75.86
84775;BME280;75005;50.966;11.344;2024-02-21T04:10:07;99665.06;;;7.54;76.01
84775;BME280;75005;50.966;11.344;2024-02-21T04:12:33;99666.00;;;7.53;76.85
84775;BME280;75005;50.966;11.344;2024-02-21T04:14:58;99670.22;;;7.54;76.27
84775;BME280;75005;50.966;11.344;2024-02-21T04:17:24;99657.88;;;7.48;75.83
84775;BME280;75005;50.966;11.344;2024-02-21T04:19:49;99657.06;;;7.48;76.98
84775;BME280;75005;50.966;11.344;2024-02-21T04:22:15;99649.59;;;7.45;76.61
84775;BME280;75005;50.966;11.344;2024-02-21T04:24:40;99647.81;;;7.45;75.63
84775;BME280;75005;50.966;11.344;2024-02-21T04:27:09;99644.25;;;7.46;76.82
84775;BME280;75005;50.966;11.344;2024-02-21T04:29:34;99642.97;;;7.42;76.97
84775;BME280;75005;50.966;11.344;2024-02-21T04:32:01;99646.84;;;7.46;77.42
84775;BME280;75005;50.966;11.344;2024-02-21T04:37:13;99627.56;;;7.41;76.37
84775;BME280;75005;50.966;11.344;2024-02-21T04:39:38;99620.78;;;7.40;76.36
84775;BME280;75005;50.966;11.344;2024-02-21T04:42:04;99623.84;;;7.43;76.89
84775;BME280;75005;50.966;11.344;2024-02-21T04:44:29;99625.44;;;7.36;76.74
84775;BME280;75005;50.966;11.344;2024-02-21T04:46:55;99632.25;;;7.37;76.94
84775;BME280;75005;50.966;11.344;2024-02-21T04:49:20;99634.28;;;7.51;76.87
84775;BME280;75005;50.966;11.344;2024-02-21T04:51:46;99642.72;;;7.53;75.64
84775;BME280;75005;50.966;11.344;2024-02-21T04:54:11;99646.19;;;7.62;76.15
84775;BME280;75005;50.966;11.344;2024-02-21T04:56:36;99646.25;;;7.52;77.20
84775;BME280;75005;50.966;11.344;2024-02-21T04:59:02;99634.16;;;7.35;77.17
84775;BME280;75005;50.966;11.344;2024-02-21T05:01:30;99643.56;;;7.36;76.29
84775;BME280;75005;50.966;11.344;2024-02-21T05:03:56;99637.72;;;7.34;78.24
84775;BME280;75005;50.966;11.344;2024-02-21T05:06:21;99635.28;;;7.32;78.06
84775;BME280;75005;50.966;11.344;2024-02-21T05:08:47;99629.88;;;7.26;77.68
84775;BME280;75005;50.966;11.344;2024-02-21T05:11:13;99634.97;;;7.35;77.68
84775;BME280;75005;50.966;11.344;2024-02-21T05:13:38;99619.44;;;7.35;77.83
84775;BME280;75005;50.966;11.344;2024-02-21T05:16:04;99606.06;;;7.40;77.29
84775;BME280;75005;50.966;11.344;2024-02-21T05:18:30;99601.75;;;7.31;78.08
84775;BME280;75005;50.966;11.344;2024-02-21T05:20:55;99601.31;;;7.35;77.98
84775;BME280;75005;50.966;11.344;2024-02-21T05:23:21;99591.09;;;7.34;77.90
84775;BME280;75005;50.966;11.344;2024-02-21T05:25:46;99587.84;;;7.32;77.74
84775;BME280;75005;50.966;11.344;2024-02-21T05:28:11;99591.09;;;7.34;77.42
84775;BME280;75005;50.966;11.344;2024-02-21T05:30:37;99571.09;;;7.44;76.45
84775;BME280;75005;50.966;11.344;2024-02-21T05:33:06;99592.47;;;7.46;77.12
84775;BME280;75005;50.966;11.344;2024-02-21T05:35:31;99579.84;;;7.43;77.44
84775;BME280;75005;50.966;11.344;2024-02-21T05:37:57;99581.41;;;7.36;76.87
84775;BME280;75005;50.966;11.344;2024-02-21T05:40:22;99575.44;;;7.35;79.04
84775;BME280;75005;50.966;11.344;2024-02-21T05:42:48;99581.06;;;7.31;78.15
84775;BME280;75005;50.966;11.344;2024-02-21T05:45:13;99573.22;;;7.23;77.47
84775;BME280;75005;50.966;11.344;2024-02-21T05:47:41;99571.06;;;7.36;77.19
84775;BME280;75005;50.966;11.344;2024-02-21T05:50:06;99581.56;;;7.34;77.97
84775;BME280;75005;50.966;11.344;2024-02-21T05:52:32;99582.69;;;7.32;78.41
84775;BME280;75005;50.966;11.344;2024-02-21T05:54:57;99591.72;;;7.28;78.73
84775;BME280;75005;50.966;11.344;2024-02-21T05:57:22;99591.34;;;7.23;78.94
84775;BME280;75005;50.966;11.344;2024-02-21T05:59:48;99579.00;;;7.17;78.78
84775;BME280;75005;50.966;11.344;2024-02-21T06:02:13;99589.13;;;7.10;79.31
84775;BME280;75005;50.966;11.344;2024-02-21T06:04:39;99583.78;;;7.12;79.12
84775;BME280;75005;50.966;11.344;2024-02-21T06:07:04;99570.47;;;7.24;78.75
84775;BME280;75005;50.966;11.344;2024-02-21T06:09:30;99564.78;;;7.21;78.34
84775;BME280;75005;50.966;11.344;2024-02-21T06:11:55;99566.06;;;7.17;79.08
84775;BME280;75005;50.966;11.344;2024-02-21T06:14:21;99567.91;;;7.24;78.62
84775;BME280;75005;50.966;11.344;2024-02-21T06:16:46;99572.84;;;7.35;79.35
84775;BME280;75005;50.966;11.344;2024-02-21T06:19:12;99572.88;;;7.44;77.77
84775;BME280;75005;50.966;11.344;2024-02-21T06:21:37;99566.03;;;7.34;77.42
84775;BME280;75005;50.966;11.344;2024-02-21T06:24:03;99572.91;;;7.26;78.77
84775;BME280;75005;50.966;11.344;2024-02-21T06:26:29;99561.03;;;7.15;79.68
84775;BME280;75005;50.966;11.344;2024-02-21T06:28:54;99559.63;;;7.21;78.82
84775;BME280;75005;50.966;11.344;2024-02-21T06:31:23;99559.47;;;7.22;79.02
84775;BME280;75005;50.966;11.344;2024-02-21T06:33:48;99556.72;;;7.24;79.40
84775;BME280;75005;50.966;11.344;2024-02-21T06:36:13;99555.75;;;7.25;79.25
84775;BME280;75005;50.966;11.344;2024-02-21T06:38:39;99562.28;;;7.29;79.08
84775;BME280;75005;50.966;11.344;2024-02-21T06:41:04;99573.66;;;7.62;77.52
84775;BME280;75005;50.966;11.344;2024-02-21T06:43:29;99572.25;;;7.67;76.98
84775;BME280;75005;50.966;11.344;2024-02-21T06:45:55;99582.59;;;7.67;78.00
84775;BME280;75005;50.966;11.344;2024-02-21T06:48:22;99582.25;;;7.62;78.15
84775;BME280;75005;50.966;11.344;2024-02-21T06:50:47;99589.72;;;7.65;77.57
84775;BME280;75005;50.966;11.344;2024-02-21T06:53:12;99600.72;;;7.67;77.53
84775;BME280;75005;50.966;11.344;2024-02-21T06:55:38;99601.13;;;7.81;77.17
84775;BME280;75005;50.966;11.344;2024-02-21T06:58:03;99596.81;;;7.89;76.80
84775;BME280;75005;50.966;11.344;2024-02-21T07:00:29;99599.53;;;7.80;76.61
84775;BME280;75005;50.966;11.344;2024-02-21T07:02:57;99592.53;;;7.80;76.34
84775;BME280;75005;50.966;11.344;2024-02-21T07:05:23;99600.94;;;7.74;77.24
84775;BME280;75005;50.966;11.344;2024-02-21T07:07:48;99605.31;;;7.74;76.79
84775;BME280;75005;50.966;11.344;2024-02-21T07:10:14;99608.56;;;7.76;76.95
84775;BME280;75005;50.966;11.344;2024-02-21T07:12:39;99618.13;;;7.83;76.49
84775;BME280;75005;50.966;11.344;2024-02-21T07:15:08;99616.25;;;7.93;76.76
84775;BME280;75005;50.966;11.344;2024-02-21T07:17:34;99597.16;;;8.28;75.06
84775;BME280;75005;50.966;11.344;2024-02-21T07:19:59;99591.31;;;8.26;76.11
84775;BME280;75005;50.966;11.344;2024-02-21T07:22:26;99588.97;;;8.07;76.67
84775;BME280;75005;50.966;11.344;2024-02-21T07:24:52;99583.25;;;7.95;77.41
84775;BME280;75005;50.966;11.344;2024-02-21T07:27:18;99579.16;;;7.93;78.21
84775;BME280;75005;50.966;11.344;2024-02-21T07:29:43;99576.88;;;7.90;78.79
84775;BME280;75005;50.966;11.344;2024-02-21T07:32:15;99576.59;;;7.93;78.59
84775;BME280;75005;50.966;11.344;2024-02-21T07:34:41;99573.34;;;7.91;78.05
84775;BME280;75005;50.966;11.344;2024-02-21T07:37:06;99580.59;;;7.87;78.30
84775;BME280;75005;50.966;11.344;2024-02-21T07:39:35;99579.31;;;7.91;77.54
84775;BME280;75005;50.966;11.344;2024-02-21T07:42:01;99580.84;;;8.02;77.25
84775;BME280;75005;50.966;11.344;2024-02-21T07:44:26;99584.47;;;8.17;75.47
84775;BME280;75005;50.966;11.344;2024-02-21T07:46:52;99597.25;;;8.45;75.34
84775;BME280;75005;50.966;11.344;2024-02-21T07:49:17;99587.00;;;8.35;75.37
84775;BME280;75005;50.966;11.344;2024-02-21T07:51:43;99584.97;;;8.21;77.04
84775;BME280;75005;50.966;11.344;2024-02-21T07:54:08;99581.91;;;8.25;75.51
84775;BME280;75005;50.966;11.344;2024-02-21T07:56:34;99589.03;;;8.23;76.44
84775;BME280;75005;50.966;11.344;2024-02-21T07:58:59;99589.06;;;8.31;75.60
84775;BME280;75005;50.966;11.344;2024-02-21T08:01:24;99584.69;;;8.32;75.33
84775;BME280;75005;50.966;11.344;2024-02-21T08:03:50;99598.19;;;8.35;75.90
84775;BME280;75005;50.966;11.344;2024-02-21T08:06:15;99593.00;;;8.35;75.41
84775;BME280;75005;50.966;11.344;2024-02-21T08:08:41;99594.50;;;8.46;74.99
84775;BME280;75005;50.966;11.344;2024-02-21T08:11:06;99593.06;;;8.52;74.87
84775;BME280;75005;50.966;11.344;2024-02-21T08:13:31;99594.50;;;8.46;74.71
84775;BME280;75005;50.966;11.344;2024-02-21T08:15:57;99587.75;;;8.27;75.52
84775;BME280;75005;50.966;11.344;2024-02-21T08:18:23;99596.19;;;8.29;75.85
84775;BME280;75005;50.966;11.344;2024-02-21T08:20:48;99588.84;;;8.17;75.96
84775;BME280;75005;50.966;11.344;2024-02-21T08:23:16;99584.78;;;8.14;76.41
84775;BME280;75005;50.966;11.344;2024-02-21T08:25:42;99589.66;;;8.17;76.54
84775;BME280;75005;50.966;11.344;2024-02-21T08:28:08;99584.00;;;8.14;77.44
84775;BME280;75005;50.966;11.344;2024-02-21T08:30:33;99577.03;;;8.22;76.29
84775;BME280;75005;50.966;11.344;2024-02-21T08:32:59;99576.41;;;8.28;76.48
84775;BME280;75005;50.966;11.344;2024-02-21T08:35:24;99564.00;;;8.40;75.83
84775;BME280;75005;50.966;11.344;2024-02-21T08:37:50;99558.97;;;8.38;75.80
84775;BME280;75005;50.966;11.344;2024-02-21T08:40:16;99560.28;;;8.43;75.13
84775;BME280;75005;50.966;11.344;2024-02-21T08:42:47;99562.56;;;8.46;75.12
84775;BME280;75005;50.966;11.344;2024-02-21T08:45:12;99571.66;;;8.50;75.33
84775;BME280;75005;50.966;11.344;2024-02-21T08:47:41;99566.63;;;8.48;75.06
84775;BME280;75005;50.966;11.344;2024-02-21T08:50:07;99567.13;;;8.60;75.07
84775;BME280;75005;50.966;11.344;2024-02-21T08:52:35;99573.97;;;8.69;74.67
84775;BME280;75005;50.966;11.344;2024-02-21T08:55:00;99569.59;;;8.69;73.90
84775;BME280;75005;50.966;11.344;2024-02-21T08:57:27;99554.84;;;8.70;74.86
84775;BME280;75005;50.966;11.344;2024-02-21T08:59:52;99556.81;;;8.84;73.59
84775;BME280;75005;50.966;11.344;2024-02-21T09:02:17;99563.13;;;8.98;73.62
84775;BME280;75005;50.966;11.344;2024-02-21T09:04:43;99558.75;;;8.98;74.10
84775;BME280;75005;50.966;11.344;2024-02-21T09:07:11;99560.38;;;8.99;72.92
84775;BME280;75005;50.966;11.344;2024-02-21T09:09:37;99552.41;;;8.93;73.80
84775;BME280;75005;50.966;11.344;2024-02-21T09:12:06;99545.59;;;9.00;73.09
84775;BME280;75005;50.966;11.344;2024-02-21T09:14:33;99544.31;;;8.88;73.52
84775;BME280;75005;50.966;11.344;2024-02-21T09:16:58;99543.19;;;8.98;73.35
84775;BME280;75005;50.966;11.344;2024-02-21T09:19:24;99542.84;;;9.10;72.61
84775;BME280;75005;50.966;11.344;2024-02-21T09:21:49;99558.44;;;9.10;72.79
84775;BME280;75005;50.966;11.344;2024-02-21T09:24:15;99546.75;;;9.14;72.69
84775;BME280;75005;50.966;11.344;2024-02-21T09:26:40;99546.75;;;9.22;72.44
84775;BME280;75005;50.966;11.344;2024-02-21T09:29:05;99545.78;;;9.23;72.62
84775;BME280;75005;50.966;11.344;2024-02-21T09:31:31;99533.63;;;9.15;73.21
84775;BME280;75005;50.966;11.344;2024-02-21T09:33:57;99536.19;;;9.31;72.07
84775;BME280;75005;50.966;11.344;2024-02-21T09:36:22;99526.59;;;9.40;74.75
84775;BME280;75005;50.966;11.344;2024-02-21T09:38:48;99519.44;;;9.50;71.72
84775;BME280;75005;50.966;11.344;2024-02-21T09:41:18;99523.50;;;9.61;71.01
84775;BME280;75005;50.966;11.344;2024-02-21T09:43:44;99511.50;;;9.99;70.65
84775;BME280;75005;50.966;11.344;2024-02-21T09:46:18;99511.78;;;9.65;70.96
84775;BME280;75005;50.966;11.344;2024-02-21T09:51:28;99494.94;;;9.92;71.11
84775;BME280;75005;50.966;11.344;2024-02-21T09:53:56;99498.06;;;10.26;69.68
84775;BME280;75005;50.966;11.344;2024-02-21T09:56:22;99489.91;;;10.29;68.25
84775;BME280;75005;50.966;11.344;2024-02-21T09:58:48;99499.03;;;9.86;70.00
84775;BME280;75005;50.966;11.344;2024-02-21T10:01:13;99483.78;;;9.75;70.03
84775;BME280;75005;50.966;11.344;2024-02-21T10:03:39;99486.16;;;10.01;69.73
84775;BME280;75005;50.966;11.344;2024-02-21T10:06:05;99480.25;;;10.07;69.20
84775;BME280;75005;50.966;11.344;2024-02-21T10:08:30;99486.03;;;10.25;68.95
84775;BME280;75005;50.966;11.344;2024-02-21T10:10:58;99482.47;;;10.18;69.40
84775;BME280;75005;50.966;11.344;2024-02-21T10:13:26;99486.00;;;10.56;68.44
84775;BME280;75005;50.966;11.344;2024-02-21T10:16:05;99485.34;;;10.54;67.99
84775;BME280;75005;50.966;11.344;2024-02-21T10:18:33;99478.00;;;10.58;68.34
84775;BME280;75005;50.966;11.344;2024-02-21T10:21:06;99475.69;;;10.40;67.89
84775;BME280;75005;50.966;11.344;2024-02-21T10:23:42;99483.59;;;10.24;70.28
84775;BME280;75005;50.966;11.344;2024-02-21T10:26:08;99480.56;;;10.04;69.17
84775;BME280;75005;50.966;11.344;2024-02-21T10:28:34;99481.91;;;10.00;69.65
84775;BME280;75005;50.966;11.344;2024-02-21T10:31:02;99480.03;;;10.48;68.79
84775;BME280;75005;50.966;11.344;2024-02-21T10:33:27;99467.09;;;10.62;67.45
84775;BME280;75005;50.966;11.344;2024-02-21T10:35:53;99449.66;;;10.86;66.43
84775;BME280;75005;50.966;11.344;2024-02-21T10:38:19;99452.91;;;11.02;66.42
84775;BME280;75005;50.966;11.344;2024-02-21T10:40:46;99449.16;;;11.05;65.94
84775;BME280;75005;50.966;11.344;2024-02-21T10:43:13;99443.44;;;10.87;67.00
84775;BME280;75005;50.966;11.344;2024-02-21T10:45:39;99445.75;;;11.19;65.56
84775;BME280;75005;50.966;11.344;2024-02-21T10:48:13;99437.38;;;11.53;64.26
84775;BME280;75005;50.966;11.344;2024-02-21T10:50:53;99438.22;;;11.39;64.22
84775;BME280;75005;50.966;11.344;2024-02-21T10:55:58;99449.47;;;10.87;64.89
84775;BME280;75005;50.966;11.344;2024-02-21T10:58:29;99448.25;;;10.37;67.71
84775;BME280;75005;50.966;11.344;2024-02-21T11:00:55;99438.16;;;10.57;67.60
84775;BME280;75005;50.966;11.344;2024-02-21T11:03:21;99429.06;;;10.38;67.41
84775;BME280;75005;50.966;11.344;2024-02-21T11:05:47;99439.97;;;10.34;66.80
84775;BME280;75005;50.966;11.344;2024-02-21T11:08:13;99434.69;;;10.65;66.96
84775;BME280;75005;50.966;11.344;2024-02-21T11:10:39;99420.78;;;11.25;65.60
84775;BME280;75005;50.966;11.344;2024-02-21T11:13:09;99408.44;;;11.63;64.44
84775;BME280;75005;50.966;11.344;2024-02-21T11:15:35;99396.94;;;11.57;65.33
84775;BME280;75005;50.966;11.344;2024-02-21T11:18:00;99390.31;;;11.25;65.51
84775;BME280;75005;50.966;11.344;2024-02-21T11:20:36;99387.28;;;11.36;65.61
84775;BME280;75005;50.966;11.344;2024-02-21T11:23:02;99379.09;;;10.95;65.19
84775;BME280;75005;50.966;11.344;2024-02-21T11:25:28;99365.25;;;10.80;66.41
84775;BME280;75005;50.966;11.344;2024-02-21T11:28:03;99356.94;;;10.99;66.32
84775;BME280;75005;50.966;11.344;2024-02-21T11:30:33;99356.34;;;11.48;64.73
84775;BME280;75005;50.966;11.344;2024-02-21T11:33:05;99357.34;;;11.18;66.06
84775;BME280;75005;50.966;11.344;2024-02-21T11:35:34;99351.63;;;11.58;63.76
84775;BME280;75005;50.966;11.344;2024-02-21T11:38:11;99349.47;;;11.77;63.04
84775;BME280;75005;50.966;11.344;2024-02-21T11:40:40;99335.47;;;11.63;62.78
84775;BME280;75005;50.966;11.344;2024-02-21T11:43:06;99336.78;;;11.73;61.89
84775;BME280;75005;50.966;11.344;2024-02-21T11:45:32;99336.44;;;11.77;61.03
84775;BME280;75005;50.966;11.344;2024-02-21T11:47:59;99336.22;;;11.42;62.37
84775;BME280;75005;50.966;11.344;2024-02-21T11:50:26;99327.66;;;11.12;62.96
84775;BME280;75005;50.966;11.344;2024-02-21T11:52:54;99326.03;;;11.11;62.47
84775;BME280;75005;50.966;11.344;2024-02-21T11:55:20;99325.72;;;11.35;62.16
84775;BME280;75005;50.966;11.344;2024-02-21T11:57:48;99318.88;;;11.49;61.13
84775;BME280;75005;50.966;11.344;2024-02-21T12:00:17;99328.38;;;11.57;59.79
84775;BME280;75005;50.966;11.344;2024-02-21T12:02:45;99328.69;;;11.68;61.10
84775;BME280;75005;50.966;11.344;2024-02-21T12:05:11;99319.00;;;11.62;60.17
84775;BME280;75005;50.966;11.344;2024-02-21T12:07:37;99314.22;;;11.81;59.61
84775;BME280;75005;50.966;11.344;2024-02-21T12:10:12;99295.03;;;12.10;58.47
84775;BME280;75005;50.966;11.344;2024-02-21T12:12:39;99297.06;;;12.14;57.58
84775;BME280;75005;50.966;11.344;2024-02-21T12:15:05;99289.44;;;11.91;58.70
84775;BME280;75005;50.966;11.344;2024-02-21T12:17:39;99285.53;;;12.02;57.74
84775;BME280;75005;50.966;11.344;2024-02-21T12:20:05;99266.53;;;12.08;56.90
84775;BME280;75005;50.966;11.344;2024-02-21T12:22:35;99276.22;;;11.93;59.19
84775;BME280;75005;50.966;11.344;2024-02-21T12:25:03;99268.19;;;12.16;57.43
84775;BME280;75005;50.966;11.344;2024-02-21T12:27:29;99255.03;;;12.30;56.35
84775;BME280;75005;50.966;11.344;2024-02-21T12:29:55;99243.97;;;12.00;55.15
84775;BME280;75005;50.966;11.344;2024-02-21T12:32:20;99232.72;;;12.21;55.63
84775;BME280;75005;50.966;11.344;2024-02-21T12:34:46;99232.09;;;12.19;55.08
84775;BME280;75005;50.966;11.344;2024-02-21T12:37:11;99234.34;;;12.01;55.63
84775;BME280;75005;50.966;11.344;2024-02-21T12:39:41;99216.53;;;12.04;54.44
84775;BME280;75005;50.966;11.344;2024-02-21T12:42:06;99202.03;;;12.30;53.87
84775;BME280;75005;50.966;11.344;2024-02-21T12:44:33;99216.97;;;12.43;55.07
84775;BME280;75005;50.966;11.344;2024-02-21T12:46:59;99215.09;;;12.02;54.58
84775;BME280;75005;50.966;11.344;2024-02-21T12:49:24;99206.94;;;11.84;53.48
84775;BME280;75005;50.966;11.344;2024-02-21T12:51:53;99199.97;;;11.91;54.58
84775;BME280;75005;50.966;11.344;2024-02-21T12:54:18;99197.38;;;11.69;53.04
84775;BME280;75005;50.966;11.344;2024-02-21T12:56:44;99205.94;;;11.63;52.91
84775;BME280;75005;50.966;11.344;2024-02-21T12:59:09;99192.75;;;11.93;53.03
84775;BME280;75005;50.966;11.344;2024-02-21T13:01:36;99197.56;;;12.17;52.06